Time;durP1;ratioP1;P1;durP2;ratioP2;P2;SDS_P1;SDS_P2;PMS_P1;PMS_P2;Temp;Humidity;BMP_temperature;BMP_pressure;BME280_temperature;BME280_humidity;BME280_pressure;Samples;Min_cycle;Max_cycle;Signal;HPM_P1;HPM_P2
2022/06/05 00:01:18;;;;;;;0.80;0.60;;;16.60;56.90;18.70;93825.00;;;;10352749;28;45131;-63
2022/06/05 00:06:50;;;;;;;1.02;0.60;;;16.70;57.00;18.70;93822.00;;;;10358410;28;45766;-64
2022/06/05 00:12:13;;;;;;;0.50;0.40;;;16.60;56.90;18.70;93810.00;;;;10358431;28;45226;-63
2022/06/05 00:17:34;;;;;;;1.02;0.52;;;16.60;56.90;18.70;93818.00;;;;10357672;28;45779;-64
2022/06/05 00:22:55;;;;;;;1.42;0.60;;;16.60;56.90;18.70;93800.00;;;;10358344;28;45142;-64
2022/06/05 00:28:23;;;;;;;0.80;0.57;;;16.60;56.90;18.70;93784.00;;;;10358515;28;45368;-64
2022/06/05 00:33:44;;;;;;;1.02;0.65;;;16.60;56.90;18.70;93806.00;;;;10357811;28;45230;-64
2022/06/05 00:39:14;;;;;;;0.90;0.50;;;16.60;56.90;18.70;93816.00;;;;10356941;28;45151;-64
2022/06/05 00:44:37;;;;;;;0.70;0.50;;;16.60;57.50;18.70;93785.00;;;;10357381;28;45260;-64
2022/06/05 00:50:02;;;;;;;0.93;0.52;;;16.60;56.90;18.70;93762.00;;;;10356707;28;45099;-64
2022/06/05 00:55:25;;;;;;;0.85;0.60;;;16.60;56.90;18.70;93767.00;;;;10357004;28;45769;-64
2022/06/05 01:00:52;;;;;;;0.63;0.50;;;16.60;56.90;18.70;93744.00;;;;10353003;28;45777;-64
2022/06/05 01:06:13;;;;;;;0.50;0.50;;;16.60;56.90;18.70;93748.00;;;;10353048;28;45246;-64
2022/06/05 01:11:50;;;;;;;0.45;0.40;;;16.60;56.90;18.70;93752.00;;;;10356531;28;45158;-64
2022/06/05 01:17:19;;;;;;;1.25;0.60;;;16.60;56.90;18.70;93732.00;;;;10355299;28;45147;-64
2022/06/05 01:23:28;;;;;;;0.60;0.43;;;16.60;56.90;18.70;93695.00;;;;10356615;28;45797;-64
2022/06/05 01:28:57;;;;;;;0.38;0.30;;;16.60;56.90;18.70;93692.00;;;;10356346;28;45169;-64
2022/06/05 01:34:25;;;;;;;0.40;0.40;;;16.60;56.90;18.70;93672.00;;;;10356462;28;45229;-64
2022/06/05 01:39:50;;;;;;;1.85;0.60;;;16.60;56.90;18.70;93651.00;;;;10355276;28;45387;-64
2022/06/05 01:45:19;;;;;;;1.92;0.60;;;16.60;56.90;18.70;93625.00;;;;10355458;28;45854;-64
2022/06/05 01:50:45;;;;;;;0.60;0.52;;;16.60;56.90;18.70;93629.00;;;;10355608;28;45253;-64
2022/06/05 01:56:10;;;;;;;1.75;0.77;;;16.60;56.90;18.70;93625.00;;;;10354644;28;45098;-64
2022/06/05 02:01:38;;;;;;;0.60;0.47;;;16.60;56.90;18.70;93622.00;;;;10355130;28;45293;-64
2022/06/05 02:07:05;;;;;;;0.60;0.40;;;16.60;56.90;18.70;93621.00;;;;10354985;28;45209;-64
2022/06/05 02:12:25;;;;;;;;;;;16.60;56.90;18.70;93615.00;;;;10355248;28;45170;-65
2022/06/05 02:17:48;;;;;;;0.50;0.38;;;16.60;56.80;18.70;93604.00;;;;10354591;28;45274;-64
2022/06/05 02:23:13;;;;;;;0.50;0.30;;;16.60;56.80;18.70;93585.00;;;;10354470;28;45870;-64
2022/06/05 02:28:35;;;;;;;0.50;0.40;;;16.60;56.90;18.70;93600.00;;;;10354150;28;45166;-64
2022/06/05 02:34:09;;;;;;;0.40;0.40;;;16.60;56.80;18.70;93619.00;;;;10354073;28;45738;-64
2022/06/05 02:39:41;;;;;;;0.75;0.60;;;16.60;56.90;18.70;93642.00;;;;10353308;28;45321;-64
2022/06/05 02:45:17;;;;;;;0.47;0.40;;;16.60;56.80;18.70;93628.00;;;;10353458;28;45182;-64
2022/06/05 02:50:47;;;;;;;0.73;0.40;;;16.60;56.90;18.70;93635.00;;;;10353727;28;45791;-64
2022/06/05 02:56:08;;;;;;;0.47;0.47;;;16.60;56.90;18.70;93668.00;;;;10353654;28;45257;-64
2022/06/05 03:07:09;;;;;;;0.95;0.60;;;16.60;56.80;18.70;93693.00;;;;10353061;28;45127;-64
2022/06/05 03:12:30;;;;;;;0.70;0.60;;;16.60;56.80;18.70;93706.00;;;;10353070;28;45261;-64
2022/06/05 03:17:50;;;;;;;0.82;0.60;;;16.60;56.90;18.70;93710.00;;;;10352548;28;45753;-64
2022/06/05 03:23:12;;;;;;;1.15;0.60;;;16.60;56.90;18.70;93715.00;;;;10353070;28;45719;-64
2022/06/05 03:28:33;;;;;;;0.55;0.50;;;16.70;57.00;18.80;93706.00;;;;10352300;28;45234;-64
2022/06/05 03:33:53;;;;;;;0.63;0.60;;;16.70;57.30;18.80;93723.00;;;;10352704;28;45177;-64
2022/06/05 03:39:16;;;;;;;1.13;0.75;;;16.70;57.70;18.80;93688.00;;;;10357869;28;45170;-64
2022/06/05 03:44:38;;;;;;;1.05;0.80;;;16.70;58.70;18.80;93795.00;;;;10359486;28;45826;-64
2022/06/05 03:49:58;;;;;;;0.85;0.70;;;16.70;58.20;18.70;93665.00;;;;10359552;28;45152;-64
2022/06/05 03:55:23;;;;;;;1.70;0.82;;;16.60;58.40;18.70;93663.00;;;;10358666;28;45154;-63
2022/06/05 04:00:44;;;;;;;1.17;0.82;;;16.60;58.40;18.70;93752.00;;;;10358693;28;45154;-63
2022/06/05 04:06:07;;;;;;;1.40;0.80;;;16.60;58.40;18.70;93761.00;;;;10358344;28;45195;-63
2022/06/05 04:11:31;;;;;;;1.70;0.90;;;16.60;58.30;18.70;93781.00;;;;10358501;28;45237;-63
2022/06/05 04:16:52;;;;;;;1.92;0.88;;;16.60;58.20;18.70;93777.00;;;;10357994;28;45134;-63
2022/06/05 04:22:13;;;;;;;1.88;0.82;;;16.60;58.30;18.70;93762.00;;;;10358780;28;45822;-63
2022/06/05 04:27:35;;;;;;;2.40;0.85;;;16.60;58.40;18.70;93792.00;;;;10357670;28;45171;-63
2022/06/05 04:32:56;;;;;;;1.33;0.77;;;16.60;58.40;18.70;93774.00;;;;10357998;28;45231;-63
2022/06/05 04:38:16;;;;;;;1.42;0.80;;;16.60;58.40;18.70;93756.00;;;;10357386;28;45795;-63
2022/06/05 04:43:38;;;;;;;1.38;0.82;;;16.60;58.50;18.70;93743.00;;;;10357427;28;45089;-63
2022/06/05 04:49:00;;;;;;;1.23;0.90;;;16.60;58.70;18.70;93762.00;;;;10356893;28;45217;-63
2022/06/05 04:54:20;;;;;;;1.95;0.90;;;16.60;58.70;18.70;93786.00;;;;10357423;28;45206;-63
2022/06/05 04:59:42;;;;;;;1.85;0.90;;;16.60;58.60;18.70;93797.00;;;;10356967;28;45259;-63
2022/06/05 05:05:04;;;;;;;1.25;0.90;;;16.60;59.20;18.70;93781.00;;;;10357492;28;45850;-63
2022/06/05 05:10:24;;;;;;;1.10;0.93;;;16.60;58.50;18.70;93785.00;;;;10356731;28;45199;-63
2022/06/05 05:15:51;;;;;;;1.75;0.88;;;16.60;58.40;18.70;93761.00;;;;10356227;28;45267;-64
2022/06/05 05:21:15;;;;;;;1.05;0.93;;;16.60;58.30;18.70;93753.00;;;;10356333;28;45233;-63
2022/06/05 05:26:36;;;;;;;2.20;0.95;;;16.60;58.50;18.70;93745.00;;;;10355933;28;45865;-63
2022/06/05 05:31:58;;;;;;;1.17;0.90;;;16.60;58.60;18.70;93767.00;;;;10356659;28;45200;-64
2022/06/05 05:37:19;;;;;;;1.70;0.88;;;16.60;58.50;18.70;93770.00;;;;10370688;28;45686;-64
2022/06/05 05:42:39;;;;;;;1.02;0.82;;;16.60;58.50;18.70;93782.00;;;;10396614;28;45891;-63
2022/06/05 05:48:01;;;;;;;1.27;1.00;;;16.60;58.30;18.70;93792.00;;;;10396235;28;45678;-64
2022/06/05 05:53:22;;;;;;;1.38;1.00;;;16.60;58.50;18.70;93805.00;;;;10396606;28;45243;-63
2022/06/05 05:58:43;;;;;;;1.35;0.90;;;16.60;58.40;18.70;93801.00;;;;10394777;28;45741;-63
2022/06/05 06:04:05;;;;;;;1.42;0.80;;;16.60;58.30;18.70;93810.00;;;;10396116;28;45230;-64
2022/06/05 06:09:26;;;;;;;1.52;0.80;;;16.60;58.30;18.70;93805.00;;;;10395152;28;45834;-63
2022/06/05 06:14:46;;;;;;;1.10;0.90;;;16.60;58.30;18.70;93813.00;;;;10396254;28;45465;-63
2022/06/05 06:20:12;;;;;;;1.40;0.80;;;16.60;58.30;18.70;93805.00;;;;10363994;28;45164;-63
2022/06/05 06:25:33;;;;;;;1.27;1.10;;;16.60;58.30;18.70;93789.00;;;;10354067;28;45745;-64
2022/06/05 06:30:53;;;;;;;0.90;0.80;;;16.60;58.30;18.70;93799.00;;;;10354010;28;45762;-64
2022/06/05 06:36:18;;;;;;;1.38;0.80;;;16.60;58.50;18.70;93801.00;;;;10353497;28;45119;-63
2022/06/05 06:41:39;;;;;;;1.35;1.00;;;16.60;58.40;18.70;93803.00;;;;10353738;28;45246;-63
2022/06/05 06:47:00;;;;;;;1.30;0.90;;;16.60;58.40;18.70;93794.00;;;;10353011;28;45830;-63
2022/06/05 06:52:21;;;;;;;1.00;0.90;;;16.60;59.00;18.70;93802.00;;;;10353189;28;45115;-63
2022/06/05 06:57:42;;;;;;;1.10;1.00;;;16.60;58.30;18.70;93812.00;;;;10352905;28;45125;-64
2022/06/05 07:03:02;;;;;;;0.70;0.70;;;16.60;58.20;18.70;93801.00;;;;10353193;28;45166;-63
2022/06/05 07:08:24;;;;;;;1.40;1.10;;;16.60;58.30;18.70;93793.00;;;;10352725;28;45811;-62
2022/06/05 07:13:45;;;;;;;1.58;1.05;;;16.70;59.20;18.80;93786.00;;;;10359337;28;45222;-63
2022/06/05 07:19:06;;;;;;;1.70;1.30;;;16.70;59.50;18.80;93781.00;;;;10360814;28;45573;-63
2022/06/05 07:24:28;;;;;;;2.78;1.33;;;16.70;59.80;18.80;93798.00;;;;10361510;28;45819;-65
2022/06/05 07:29:49;;;;;;;2.30;1.45;;;16.80;60.70;18.90;93773.00;;;;10361058;28;45934;-71
2022/06/05 07:35:11;;;;;;;3.70;1.30;;;16.80;59.70;18.90;93777.00;;;;10361248;28;45426;-67
2022/06/05 07:40:38;;;;;;;2.47;1.20;;;16.80;59.80;18.90;93790.00;;;;10358699;28;45168;-63
2022/06/05 07:46:03;;;;;;;2.40;1.43;;;16.80;60.00;18.90;93790.00;;;;10359904;28;45173;-63
2022/06/05 07:57:15;;;;;;;1.50;1.23;;;16.90;59.30;18.90;93771.00;;;;10308722;28;45145;-65
2022/06/05 08:02:37;;;;;;;4.32;1.23;;;16.90;59.80;19.00;93793.00;;;;10357209;28;45887;-62
2022/06/05 08:07:57;;;;;;;3.28;1.27;;;16.90;59.30;19.00;93814.00;;;;10358265;28;45198;-62
2022/06/05 08:13:19;;;;;;;1.55;1.10;;;16.90;59.00;18.90;93859.00;;;;10358968;28;45857;-62
2022/06/05 08:18:40;;;;;;;3.50;1.30;;;16.90;58.70;18.90;93893.00;;;;10358555;28;45810;-63
2022/06/05 08:24:01;;;;;;;2.85;1.40;;;16.90;58.70;18.90;93885.00;;;;10358083;28;45261;-62
2022/06/05 08:29:23;;;;;;;2.15;1.17;;;16.80;58.80;18.90;93901.00;;;;10357839;28;45662;-63
2022/06/05 08:34:45;;;;;;;3.00;1.30;;;16.80;58.90;18.90;93899.00;;;;10357497;28;45669;-63
2022/06/05 08:46:01;;;;;;;1.58;1.25;;;16.80;58.80;18.90;93912.00;;;;10357149;28;45106;-62
2022/06/05 08:51:46;;;;;;;3.80;1.08;;;16.80;59.00;18.90;93924.00;;;;10357855;28;45230;-62
2022/06/05 08:57:15;;;;;;;3.30;1.05;;;16.80;58.80;18.90;93905.00;;;;10356966;28;45361;-62
2022/06/05 09:02:46;;;;;;;2.50;1.25;;;16.80;58.80;18.90;93877.00;;;;10356686;28;45152;-62
2022/06/05 09:08:12;;;;;;;1.88;1.23;;;16.80;58.80;18.90;93844.00;;;;10338276;28;45251;-62
2022/06/05 09:13:43;;;;;;;1.50;1.03;;;16.80;58.80;18.90;93813.00;;;;10348484;28;45208;-64
2022/06/05 09:19:05;;;;;;;2.45;1.13;;;16.80;58.90;18.90;93827.00;;;;10354932;28;45654;-62
2022/06/05 09:24:43;;;;;;;1.83;1.25;;;16.80;59.00;18.90;93831.00;;;;10357129;28;45761;-62
2022/06/05 09:30:06;;;;;;;;;;;16.80;58.90;18.90;93805.00;;;;10357033;28;45320;-62
2022/06/05 09:35:35;;;;;;;1.75;1.23;;;16.80;58.80;18.90;93819.00;;;;10390584;23;45371;-60
2022/06/05 09:41:37;;;;;;;3.95;1.40;;;16.80;58.80;18.90;93835.00;;;;10314968;28;45754;-61
2022/06/05 09:47:01;;;;;;;2.33;1.50;;;16.80;58.80;18.90;93818.00;;;;10318618;28;45114;-60
2022/06/05 09:52:26;;;;;;;1.58;1.30;;;16.80;59.40;18.90;93784.00;;;;10315476;28;45758;-60
2022/06/05 10:03:44;;;;;;;4.00;1.60;;;16.80;59.00;18.90;93825.00;;;;10315065;28;45678;-61
2022/06/05 10:09:12;;;;;;;4.70;1.73;;;16.80;59.20;18.90;93828.00;;;;10314595;28;45123;-60
2022/06/05 10:14:47;;;;;;;3.03;1.30;;;16.80;59.50;18.90;93881.00;;;;10308912;28;45273;-60
2022/06/05 10:20:54;;;;;;;4.07;1.40;;;16.80;59.40;18.90;93878.00;;;;10273129;28;45894;-59
2022/06/05 10:26:28;;;;;;;3.03;1.38;;;16.80;59.10;18.90;93900.00;;;;10273477;28;45216;-58
2022/06/05 10:31:58;;;;;;;1.30;1.20;;;16.80;59.50;18.90;93896.00;;;;10273389;28;45178;-59
2022/06/05 10:37:28;;;;;;;3.00;1.40;;;16.80;59.60;18.90;93846.00;;;;10273018;28;45132;-59
2022/06/05 10:43:01;;;;;;;2.50;1.40;;;16.80;59.20;18.90;93840.00;;;;10273993;28;45191;-60
2022/06/05 10:48:41;;;;;;;1.80;1.30;;;16.80;59.40;18.80;93741.00;;;;10272631;28;45262;-60
2022/06/05 10:54:22;;;;;;;2.45;1.20;;;16.80;59.40;18.90;93795.00;;;;10272935;28;45871;-59
2022/06/05 10:59:56;;;;;;;3.05;1.30;;;16.80;59.30;18.90;93836.00;;;;10273866;28;45755;-60
2022/06/05 11:05:39;;;;;;;7.60;1.92;;;16.80;59.40;18.90;93855.00;;;;10273359;28;45282;-59
2022/06/05 11:17:05;;;;;;;;;;;16.80;59.60;18.90;93868.00;;;;10272434;28;45301;-60
2022/06/05 11:22:29;;;;;;;3.60;1.57;;;16.80;59.40;18.90;93873.00;;;;10273832;28;45197;-59
2022/06/05 11:28:00;;;;;;;2.15;1.42;;;16.80;59.60;18.90;93891.00;;;;10272607;28;45836;-59
2022/06/05 11:33:25;;;;;;;3.40;1.50;;;16.80;59.50;18.90;93896.00;;;;10299916;28;45206;-59
2022/06/05 11:39:01;;;;;;;4.60;1.67;;;16.80;59.70;18.90;93897.00;;;;10311693;28;45188;-58
2022/06/05 11:44:36;;;;;;;2.53;1.58;;;16.80;59.50;18.90;93926.00;;;;10312610;28;45258;-59
2022/06/05 11:50:10;;;;;;;2.45;1.55;;;16.80;59.60;18.90;93916.00;;;;10311587;28;45147;-60
2022/06/05 11:55:37;;;;;;;4.22;1.70;;;16.80;59.50;18.90;93893.00;;;;10311463;28;45267;-58
2022/06/05 12:01:03;;;;;;;4.30;1.67;;;16.80;59.40;18.80;93873.00;;;;10317229;28;45194;-59
2022/06/05 12:06:30;;;;;;;4.93;1.65;;;16.80;59.50;18.90;93860.00;;;;10319794;28;45454;-59
2022/06/05 12:11:55;;;;;;;;;;;16.80;59.40;18.90;93889.00;;;;10319707;28;45099;-59
2022/06/05 12:17:23;;;;;;;2.08;1.40;;;16.80;59.50;18.90;93891.00;;;;10313696;28;45359;-58
2022/06/05 12:22:50;;;;;;;2.97;1.58;;;16.80;59.20;18.90;93892.00;;;;10278218;28;45111;-59
2022/06/05 12:28:15;;;;;;;4.55;1.30;;;16.80;59.10;18.90;93878.00;;;;10293839;28;45208;-59
2022/06/05 12:33:45;;;;;;;2.47;1.38;;;16.80;59.30;18.90;93857.00;;;;10312152;28;45861;-59
2022/06/05 12:39:17;;;;;;;3.58;1.50;;;16.80;59.50;18.90;93852.00;;;;10276889;28;45231;-60
2022/06/05 12:44:44;;;;;;;1.92;1.38;;;16.80;59.60;18.90;93871.00;;;;10276630;28;45235;-58
2022/06/05 12:50:21;;;;;;;2.35;1.33;;;16.80;59.50;18.90;93865.00;;;;10295137;28;45227;-58
2022/06/05 12:55:49;;;;;;;3.77;1.20;;;16.80;59.50;18.90;93852.00;;;;10313069;28;45872;-60
2022/06/05 13:01:17;;;;;;;3.22;1.17;;;16.80;59.50;18.90;93863.00;;;;10317600;28;45092;-61
2022/06/05 13:06:48;;;;;;;2.40;1.23;;;16.80;59.40;18.90;93863.00;;;;10316444;28;45167;-59
2022/06/05 13:12:23;;;;;;;3.60;1.30;;;16.80;59.40;18.90;93860.00;;;;10316689;28;45088;-58
2022/06/05 13:17:54;;;;;;;1.85;1.30;;;16.80;59.30;18.90;93860.00;;;;10316413;28;45682;-59
2022/06/05 13:23:26;;;;;;;3.55;1.45;;;16.80;59.30;18.90;93860.00;;;;10278031;28;45279;-58
2022/06/05 13:28:52;;;;;;;3.95;1.50;;;16.80;59.30;18.90;93839.00;;;;10280761;28;45400;-60
2022/06/05 13:34:24;;;;;;;3.83;1.60;;;16.80;59.30;18.90;93822.00;;;;10273847;28;45918;-59
2022/06/05 13:39:54;;;;;;;5.68;1.70;;;16.80;59.00;18.90;93817.00;;;;10273941;28;45194;-61
2022/06/05 13:45:30;;;;;;;1.95;1.35;;;16.80;59.20;18.90;93784.00;;;;10275028;28;45175;-59
2022/06/05 13:50:57;;;;;;;1.55;0.98;;;16.80;59.20;18.90;93782.00;;;;10275187;28;45338;-60
2022/06/05 13:56:29;;;;;;;3.57;1.30;;;16.90;59.10;18.90;93807.00;;;;10275568;28;45270;-59
2022/06/05 14:02:25;;;;;;;3.47;1.17;;;16.90;59.20;18.90;93839.00;;;;10275777;28;45800;-59
2022/06/05 14:08:03;;;;;;;2.05;1.10;;;16.90;59.30;18.90;93856.00;;;;10274897;28;45283;-58
2022/06/05 14:13:24;;;;;;;1.70;1.20;;;16.90;59.30;18.90;93848.00;;;;10275238;28;45790;-59
2022/06/05 14:18:49;;;;;;;2.33;1.10;;;16.90;59.40;18.90;93874.00;;;;10274573;28;45215;-58
2022/06/05 14:24:17;;;;;;;2.83;1.40;;;16.90;59.30;18.90;93862.00;;;;10274359;28;45220;-59
2022/06/05 14:29:41;;;;;;;1.88;1.05;;;16.80;59.20;18.90;93879.00;;;;10274142;28;45229;-60
2022/06/05 14:35:31;;;;;;;2.15;1.05;;;16.80;59.20;18.90;93901.00;;;;10274610;28;45354;-59
2022/06/05 14:41:02;;;;;;;2.53;0.98;;;16.80;59.00;18.90;93887.00;;;;10272906;28;45167;-59
2022/06/05 14:46:35;;;;;;;5.60;1.15;;;16.80;59.00;18.90;93890.00;;;;10273055;28;45925;-60
2022/06/05 14:52:29;;;;;;;2.33;1.00;;;16.80;59.70;18.90;93909.00;;;;10273008;28;45175;-59
2022/06/05 14:57:56;;;;;;;1.63;0.80;;;16.80;59.10;18.90;93895.00;;;;10271717;28;45370;-59
2022/06/05 15:03:23;;;;;;;1.95;1.10;;;16.90;59.20;19.00;93903.00;;;;10278513;28;45258;-59
2022/06/05 15:08:52;;;;;;;2.13;1.00;;;16.90;58.80;19.00;93910.00;;;;10286366;28;45116;-59
2022/06/05 15:14:20;;;;;;;2.50;1.27;;;16.90;59.00;19.00;93899.00;;;;10283234;28;45249;-59
2022/06/05 15:19:41;;;;;;;3.38;1.02;;;16.90;59.00;19.00;93897.00;;;;10294187;28;45236;-59
2022/06/05 15:25:13;;;;;;;2.63;0.95;;;16.90;59.00;19.00;93934.00;;;;10312878;28;45148;-59
2022/06/05 15:30:37;;;;;;;2.08;1.08;;;16.90;59.00;19.00;93973.00;;;;10312187;28;45128;-58
2022/06/05 15:36:09;;;;;;;2.92;1.10;;;16.90;58.90;19.00;93964.00;;;;10285621;28;45242;-61
2022/06/05 15:41:48;;;;;;;2.08;1.00;;;16.90;59.00;19.00;93945.00;;;;10274846;28;45180;-59
2022/06/05 15:47:23;;;;;;;1.65;0.90;;;16.90;58.80;19.10;93937.00;;;;10324184;23;45187;-59
2022/06/05 15:53:04;;;;;;;2.38;1.05;;;17.00;58.80;19.10;93962.00;;;;10322310;28;45806;-61
2022/06/05 15:58:49;;;;;;;3.35;1.20;;;17.00;59.00;19.20;93963.00;;;;10359990;28;45484;-59
2022/06/05 16:04:17;;;;;;;1.90;1.08;;;17.10;59.10;19.10;93962.00;;;;10344480;28;45204;-59
2022/06/05 16:09:41;;;;;;;2.55;0.98;;;17.10;59.40;19.10;93979.00;;;;10343377;28;45234;-59
2022/06/05 16:15:14;;;;;;;3.83;1.10;;;17.10;60.20;19.10;94005.00;;;;10367628;28;45138;-59
2022/06/05 16:20:55;;;;;;;2.20;1.10;;;17.00;60.00;19.10;93994.00;;;;10366580;28;45168;-58
2022/06/05 16:26:28;;;;;;;2.25;1.00;;;17.00;60.10;19.10;94006.00;;;;10362639;28;45242;-59
2022/06/05 16:31:52;;;;;;;2.72;1.00;;;17.00;59.90;19.10;94001.00;;;;10363127;28;45798;-59
2022/06/05 16:43:07;;;;;;;3.45;1.25;;;17.00;59.80;19.10;94019.00;;;;10341086;28;45260;-59
2022/06/05 16:48:31;;;;;;;2.28;1.05;;;17.00;59.80;19.10;94015.00;;;;10325629;28;45114;-59
2022/06/05 16:54:22;;;;;;;2.33;1.17;;;17.00;60.30;19.10;94000.00;;;;10324939;28;45156;-60
2022/06/05 17:00:20;;;;;;;2.22;0.90;;;17.10;59.60;19.10;94008.00;;;;10322216;28;45222;-59
2022/06/05 17:05:42;;;;;;;1.65;0.80;;;17.10;60.10;19.10;93991.00;;;;10324073;28;46048;-59
2022/06/05 17:11:26;;;;;;;2.15;1.00;;;17.10;60.40;19.20;94002.00;;;;10322976;28;45234;-59
2022/06/05 17:17:11;;;;;;;2.28;0.90;;;17.10;59.40;19.20;94000.00;;;;10319664;28;45281;-60
2022/06/05 17:22:37;;;;;;;1.83;0.93;;;17.10;59.00;19.20;94011.00;;;;10322679;28;45227;-59
2022/06/05 17:28:25;;;;;;;0.75;0.70;;;17.10;58.70;19.20;94021.00;;;;10320090;28;45231;-59
2022/06/05 17:33:57;;;;;;;;;;;17.10;58.60;19.20;94018.00;;;;10319619;28;45689;-61
2022/06/05 17:39:44;;;;;;;2.08;0.85;;;17.10;59.00;19.10;94030.00;;;;10319701;28;45260;-60
2022/06/05 17:45:26;;;;;;;1.70;0.80;;;17.10;59.40;19.10;94033.00;;;;10319466;28;45390;-59
2022/06/05 17:50:57;;;;;;;1.73;0.70;;;17.00;59.60;19.10;94036.00;;;;10318157;28;45285;-59
2022/06/05 17:56:24;;;;;;;1.40;0.88;;;17.10;59.80;19.10;94029.00;;;;10317686;28;45129;-59
2022/06/05 18:01:48;;;;;;;1.25;0.80;;;17.00;59.50;19.10;94040.00;;;;10319839;28;45276;-59
2022/06/05 18:07:28;;;;;;;1.77;0.88;;;17.00;59.80;19.10;94019.00;;;;10344229;28;45971;-59
2022/06/05 18:12:51;;;;;;;1.80;0.90;;;17.00;60.00;19.10;94024.00;;;;10361388;28;45167;-59
2022/06/05 18:18:19;;;;;;;1.35;0.82;;;17.00;59.90;19.10;94026.00;;;;10359087;28;45158;-59
2022/06/05 18:23:50;;;;;;;1.58;0.80;;;17.00;59.90;19.10;94025.00;;;;10359954;28;45114;-59
2022/06/05 18:29:27;;;;;;;0.70;0.63;;;17.00;59.90;19.10;94038.00;;;;10360489;28;45119;-61
2022/06/05 18:34:57;;;;;;;1.33;0.70;;;17.00;59.90;19.10;94053.00;;;;10360692;28;45199;-59
2022/06/05 18:40:22;;;;;;;1.48;0.60;;;17.00;59.80;19.10;94044.00;;;;10358138;28;45167;-59
2022/06/05 18:45:47;;;;;;;0.88;0.75;;;17.00;60.00;19.00;94043.00;;;;10357217;28;45221;-59
2022/06/05 18:51:16;;;;;;;1.45;0.75;;;17.00;60.10;19.00;94036.00;;;;10359593;28;45854;-59
2022/06/05 18:56:38;;;;;;;1.42;0.70;;;16.90;59.90;19.00;94049.00;;;;10360348;28;45218;-59
2022/06/05 19:02:11;;;;;;;1.77;0.77;;;16.90;59.70;19.00;94047.00;;;;10359083;28;45750;-59
2022/06/05 19:07:40;;;;;;;0.85;0.63;;;16.90;60.00;19.00;94048.00;;;;10343727;28;45200;-60
2022/06/05 19:13:07;;;;;;;1.52;0.60;;;16.90;60.00;19.00;94058.00;;;;10358864;28;45232;-59
2022/06/05 19:18:35;;;;;;;1.73;0.70;;;16.90;60.00;19.00;94074.00;;;;10358864;28;45220;-59
2022/06/05 19:24:03;;;;;;;0.85;0.63;;;16.90;60.00;19.00;94089.00;;;;10357181;28;45194;-59
2022/06/05 19:29:27;;;;;;;1.45;0.60;;;16.90;59.90;19.00;94095.00;;;;10356684;28;46004;-59
2022/06/05 19:34:53;;;;;;;1.27;0.60;;;16.90;59.70;19.00;94077.00;;;;10358795;28;45198;-59
2022/06/05 19:40:22;;;;;;;1.15;0.73;;;16.90;59.90;19.00;94098.00;;;;10356571;28;45154;-59
2022/06/05 19:45:45;;;;;;;0.90;0.55;;;16.90;59.90;18.90;94092.00;;;;10356097;28;45687;-59
2022/06/05 19:51:19;;;;;;;0.77;0.60;;;16.80;59.80;18.90;94091.00;;;;10355869;28;45398;-59
2022/06/05 19:56:40;;;;;;;2.33;0.63;;;16.80;59.70;18.90;94102.00;;;;10356709;28;45169;-60
2022/06/05 20:02:02;;;;;;;0.82;0.60;;;16.80;59.70;18.90;94099.00;;;;10359026;28;45254;-59
2022/06/05 20:07:34;;;;;;;0.65;0.50;;;16.80;59.80;18.90;94109.00;;;;10355438;28;45103;-59
2022/06/05 20:13:00;;;;;;;0.50;0.50;;;16.80;59.90;18.90;94110.00;;;;10357274;28;45754;-60
2022/06/05 20:18:26;;;;;;;1.10;0.60;;;16.80;59.80;18.90;94131.00;;;;10356247;28;45265;-60
2022/06/05 20:23:51;;;;;;;0.90;0.70;;;16.80;59.90;18.90;94136.00;;;;10360742;28;45325;-61
2022/06/05 20:29:24;;;;;;;2.05;0.50;;;16.80;59.90;18.90;94144.00;;;;10361706;28;45143;-59
2022/06/05 20:34:49;;;;;;;0.90;0.50;;;16.80;60.10;18.90;94140.00;;;;10361248;28;45204;-59
2022/06/05 20:40:19;;;;;;;0.55;0.50;;;16.80;60.10;18.90;94153.00;;;;10360413;28;46339;-59
2022/06/05 20:45:41;;;;;;;1.60;0.57;;;16.80;60.20;18.90;94166.00;;;;10362684;28;45710;-60
2022/06/05 20:51:06;;;;;;;1.15;0.70;;;16.80;60.20;18.90;94165.00;;;;10363735;28;45699;-59
2022/06/05 20:56:37;;;;;;;1.20;0.60;;;16.80;60.40;18.90;94184.00;;;;10360984;28;45122;-59
2022/06/05 21:02:02;;;;;;;0.60;0.57;;;16.80;60.50;18.90;94173.00;;;;10360199;28;45165;-59
2022/06/05 21:07:27;;;;;;;0.57;0.57;;;16.80;60.50;18.90;94178.00;;;;10360285;28;45207;-59
2022/06/05 21:18:28;;;;;;;1.58;0.60;;;16.80;60.70;18.90;94168.00;;;;10361167;28;45126;-59
2022/06/05 21:23:49;;;;;;;0.80;0.60;;;16.80;60.80;18.90;94166.00;;;;10359852;28;45226;-60
2022/06/05 21:29:12;;;;;;;1.02;0.70;;;16.80;60.80;18.80;94163.00;;;;10359345;28;45177;-59
2022/06/05 21:34:37;;;;;;;1.30;0.73;;;16.80;60.90;18.90;94170.00;;;;10355880;28;45307;-59
2022/06/05 21:40:03;;;;;;;0.85;0.68;;;16.80;60.90;18.80;94185.00;;;;10359712;28;45192;-59
2022/06/05 21:45:27;;;;;;;0.82;0.60;;;16.80;60.90;18.80;94182.00;;;;10374538;22;45231;-67
2022/06/05 21:50:49;;;;;;;1.02;0.70;;;16.80;60.90;18.80;94186.00;;;;10315030;28;45206;-67
2022/06/05 21:56:16;;;;;;;0.70;0.60;;;16.70;60.90;18.80;94192.00;;;;10342822;28;45197;-67
2022/06/05 22:01:40;;;;;;;1.38;0.70;;;16.70;60.90;18.80;94192.00;;;;10356910;28;45749;-65
2022/06/05 22:07:01;;;;;;;1.10;0.80;;;16.70;61.10;18.80;94176.00;;;;10356358;28;45306;-65
2022/06/05 22:12:21;;;;;;;0.98;0.70;;;16.80;61.00;18.80;94184.00;;;;10356459;28;45178;-65
2022/06/05 22:17:43;;;;;;;1.00;0.60;;;16.70;61.10;18.80;94182.00;;;;10356045;28;45322;-66
2022/06/05 22:23:05;;;;;;;0.77;0.63;;;16.70;61.10;18.80;94190.00;;;;10356085;28;45217;-66
2022/06/05 22:28:26;;;;;;;1.10;0.60;;;16.70;61.20;18.80;94192.00;;;;10355671;28;45237;-65
2022/06/05 22:33:48;;;;;;;1.73;0.70;;;16.70;61.20;18.80;94199.00;;;;10355463;28;45175;-65
2022/06/05 22:39:09;;;;;;;1.02;0.60;;;16.70;61.20;18.80;94195.00;;;;10355684;28;45139;-65
2022/06/05 22:44:30;;;;;;;1.15;0.70;;;16.70;61.20;18.80;94194.00;;;;10354105;28;45092;-66
2022/06/05 22:49:52;;;;;;;1.45;0.60;;;16.70;61.20;18.80;94192.00;;;;10355505;28;45745;-65
2022/06/05 22:55:15;;;;;;;1.83;0.80;;;16.70;61.20;18.80;94197.00;;;;10355223;28;45206;-65
2022/06/05 23:00:39;;;;;;;0.57;0.57;;;16.70;61.20;18.80;94199.00;;;;10354869;28;45974;-65
2022/06/05 23:06:01;;;;;;;0.88;0.68;;;16.70;61.30;18.80;94189.00;;;;10354436;28;45179;-65
2022/06/05 23:11:22;;;;;;;0.93;0.80;;;16.70;61.20;18.80;94190.00;;;;10354807;28;45799;-66
2022/06/05 23:16:42;;;;;;;0.90;0.70;;;16.70;61.30;18.80;94198.00;;;;10354620;28;45678;-65
2022/06/05 23:22:06;;;;;;;1.00;0.73;;;16.70;61.30;18.80;94180.00;;;;10354276;28;45869;-69
2022/06/05 23:27:27;;;;;;;1.20;0.80;;;16.70;61.30;18.80;94180.00;;;;10353907;28;45167;-66
2022/06/05 23:32:48;;;;;;;0.85;0.68;;;16.70;61.20;18.80;94162.00;;;;10354017;28;45245;-65
2022/06/05 23:38:10;;;;;;;0.90;0.80;;;16.70;61.30;18.80;94172.00;;;;10353776;28;45148;-65
2022/06/05 23:43:31;;;;;;;1.00;0.70;;;16.70;61.20;18.80;94163.00;;;;10353359;28;45097;-65
2022/06/05 23:48:52;;;;;;;1.00;0.80;;;16.70;61.30;18.80;94163.00;;;;10353688;28;45150;-65
2022/06/05 23:54:17;;;;;;;1.33;0.70;;;16.70;61.20;18.80;94155.00;;;;10355842;28;45737;-65
2022/06/05 23:59:38;;;;;;;1.95;0.80;;;16.70;61.30;18.80;94147.00;;;;10360400;28;45242;-65
